Time;durP1;ratioP1;P1;durP2;ratioP2;P2;SDS_P1;SDS_P2;PMS_P1;PMS_P2;Temp;Humidity;BMP_temperature;BMP_pressure;BME280_temperature;BME280_humidity;BME280_pressure;Samples;Min_cycle;Max_cycle;Signal;HPM_P1;HPM_P2
2023/09/11 00:01:39;;;;;;;16.08;7.60;;;;;20.00;98592.00;;;;4920366;29;20087;-66
2023/09/11 00:04:06;;;;;;;22.75;8.02;;;;;20.00;98588.00;;;;4919346;29;20055;-66
2023/09/11 00:06:33;;;;;;;16.33;6.88;;;;;20.00;98581.00;;;;4918650;29;20667;-66
2023/09/11 00:09:00;;;;;;;14.45;7.75;;;;;19.90;98583.00;;;;4918877;29;20418;-66
2023/09/11 00:11:27;;;;;;;15.55;7.68;;;;;19.80;98586.00;;;;4920218;29;20052;-66
2023/09/11 00:13:53;;;;;;;13.30;7.78;;;;;19.90;98583.00;;;;4917991;29;20056;-66
2023/09/11 00:16:20;;;;;;;14.35;7.40;;;;;19.80;98580.00;;;;4919449;29;20142;-66
2023/09/11 00:18:47;;;;;;;15.13;7.78;;;;;19.70;98578.00;;;;4921978;29;20072;-66
2023/09/11 00:21:13;;;;;;;14.73;6.30;;;;;19.60;98576.00;;;;4922737;29;20126;-67
2023/09/11 00:23:40;;;;;;;15.38;8.00;;;;;19.50;98571.00;;;;4920435;29;20276;-67
2023/09/11 00:26:06;;;;;;;13.48;7.65;;;;;19.50;98576.00;;;;4919280;29;20052;-67
2023/09/11 00:28:33;;;;;;;13.15;7.20;;;;;19.60;98568.00;;;;4920588;29;20064;-67
2023/09/11 00:31:01;;;;;;;13.20;7.82;;;;;19.70;98571.00;;;;4922380;29;20058;-67
2023/09/11 00:33:27;;;;;;;13.02;7.28;;;;;19.60;98565.00;;;;4919297;29;20080;-67
2023/09/11 00:35:54;;;;;;;10.32;6.85;;;;;19.50;98569.00;;;;4919489;29;20063;-67
2023/09/11 00:38:21;;;;;;;14.15;6.85;;;;;19.40;98567.00;;;;4921207;29;20067;-67
2023/09/11 00:40:48;;;;;;;19.33;7.00;;;;;19.50;98562.00;;;;4921814;29;20052;-67
2023/09/11 00:43:14;;;;;;;16.80;7.15;;;;;19.60;98556.00;;;;4924999;29;20048;-67
2023/09/11 00:45:41;;;;;;;17.73;7.82;;;;;19.70;98559.00;;;;4920728;29;20079;-67
2023/09/11 00:48:09;;;;;;;12.52;6.65;;;;;19.60;98554.00;;;;4924081;29;20066;-67
2023/09/11 00:50:36;;;;;;;14.98;7.45;;;;;19.50;98555.00;;;;4923583;29;20113;-67
2023/09/11 00:53:06;;;;;;;12.63;7.03;;;;;19.50;98565.00;;;;4922997;29;20055;-67
2023/09/11 00:55:33;;;;;;;17.40;7.40;;;;;19.40;98565.00;;;;4906682;29;20059;-67
2023/09/11 00:57:59;;;;;;;18.17;7.63;;;;;19.50;98563.00;;;;4924839;29;20052;-67
2023/09/11 01:00:26;;;;;;;14.27;6.95;;;;;19.50;98555.00;;;;4924062;29;20461;-67
2023/09/11 01:02:53;;;;;;;13.55;8.13;;;;;19.50;98555.00;;;;4923489;29;20055;-67
2023/09/11 01:05:22;;;;;;;12.48;6.78;;;;;19.50;98554.00;;;;4922150;29;20041;-65
2023/09/11 01:07:49;;;;;;;14.70;7.28;;;;;19.40;98553.00;;;;4923151;29;20047;-65
2023/09/11 01:10:16;;;;;;;13.65;7.55;;;;;19.30;98552.00;;;;4926126;29;20048;-65
2023/09/11 01:12:43;;;;;;;18.40;7.30;;;;;19.20;98555.00;;;;4925191;29;20063;-66
2023/09/11 01:15:10;;;;;;;13.07;7.30;;;;;19.20;98550.00;;;;4925180;29;20131;-68
2023/09/11 01:17:44;;;;;;;13.20;6.65;;;;;19.20;98552.00;;;;4910750;29;20075;-66
2023/09/11 01:20:59;;;;;;;13.85;7.47;;;;;19.20;98550.00;;;;4910230;29;20048;-68
2023/09/11 01:23:56;;;;;;;13.70;6.72;;;;;19.20;98548.00;;;;4855292;29;20713;-66
2023/09/11 01:26:55;;;;;;;10.60;6.90;;;;;19.20;98548.00;;;;4869589;29;20045;-66
2023/09/11 01:29:26;;;;;;;14.63;7.53;;;;;19.10;98546.00;;;;4920769;29;20059;-66
2023/09/11 01:31:54;;;;;;;17.88;6.95;;;;;19.00;98546.00;;;;4924021;29;20052;-66
2023/09/11 01:34:21;;;;;;;11.10;7.65;;;;;18.90;98545.00;;;;4924032;29;20076;-66
2023/09/11 01:36:48;;;;;;;13.00;6.88;;;;;18.70;98542.00;;;;4926444;29;20045;-66
2023/09/11 01:39:16;;;;;;;12.32;6.55;;;;;18.60;98542.00;;;;4928624;29;20044;-67
2023/09/11 01:41:46;;;;;;;14.23;6.93;;;;;18.50;98545.00;;;;4927373;29;20084;-67
2023/09/11 01:44:27;;;;;;;12.25;7.45;;;;;18.50;98536.00;;;;4929173;29;20068;-66
2023/09/11 01:46:57;;;;;;;10.52;6.68;;;;;18.40;98537.00;;;;4928887;29;20493;-66
2023/09/11 01:49:24;;;;;;;15.02;7.50;;;;;18.30;98541.00;;;;4930477;29;20063;-67
2023/09/11 01:51:52;;;;;;;16.95;7.35;;;;;18.30;98535.00;;;;4930118;29;20673;-67
2023/09/11 01:54:20;;;;;;;14.52;6.97;;;;;18.30;98539.00;;;;4928968;29;20048;-67
2023/09/11 01:56:47;;;;;;;17.98;7.65;;;;;18.30;98541.00;;;;4930402;29;20044;-67
2023/09/11 01:59:14;;;;;;;12.35;6.47;;;;;18.30;98541.00;;;;4928467;29;20059;-66
2023/09/11 02:01:43;;;;;;;13.82;7.07;;;;;18.30;98531.00;;;;4926289;29;20048;-67
2023/09/11 02:04:10;;;;;;;12.35;6.60;;;;;18.30;98546.00;;;;4911333;29;20056;-66
2023/09/11 02:06:37;;;;;;;14.77;6.63;;;;;18.20;98539.00;;;;4926572;29;20044;-66
2023/09/11 02:09:04;;;;;;;15.15;7.28;;;;;18.20;98531.00;;;;4925899;29;20066;-66
2023/09/11 02:11:31;;;;;;;13.50;7.60;;;;;18.20;98543.00;;;;4926087;29;20076;-66
2023/09/11 02:13:58;;;;;;;18.40;7.63;;;;;18.20;98538.00;;;;4926007;29;20040;-66
2023/09/11 02:16:28;;;;;;;11.57;6.85;;;;;18.10;98539.00;;;;4910065;29;20051;-68
2023/09/11 02:18:54;;;;;;;14.30;6.75;;;;;18.10;98536.00;;;;4925340;29;20067;-66
2023/09/11 02:21:21;;;;;;;11.20;6.63;;;;;18.10;98534.00;;;;4924409;29;20453;-66
2023/09/11 02:23:47;;;;;;;15.57;7.53;;;;;18.10;98530.00;;;;4922395;29;20416;-66
2023/09/11 02:26:14;;;;;;;13.70;6.93;;;;;18.10;98528.00;;;;4922814;29;20059;-66
2023/09/11 02:28:41;;;;;;;20.05;7.70;;;;;18.10;98529.00;;;;4923061;29;20553;-66
2023/09/11 02:31:08;;;;;;;16.10;7.93;;;;;18.20;98523.00;;;;4925379;29;20056;-67
2023/09/11 02:33:35;;;;;;;11.75;6.68;;;;;18.10;98522.00;;;;4925295;29;20063;-66
2023/09/11 02:36:02;;;;;;;14.93;7.13;;;;;18.10;98524.00;;;;4925987;29;20050;-67
2023/09/11 02:38:29;;;;;;;12.82;7.10;;;;;18.00;98519.00;;;;4925439;29;20087;-67
2023/09/11 02:40:56;;;;;;;13.98;6.78;;;;;18.00;98520.00;;;;4925312;29;20059;-67
2023/09/11 02:43:34;;;;;;;16.80;7.70;;;;;18.00;98523.00;;;;4924369;29;20080;-68
2023/09/11 02:46:01;;;;;;;13.68;7.15;;;;;18.00;98523.00;;;;4924759;29;20052;-67
2023/09/11 02:48:28;;;;;;;13.68;7.25;;;;;18.00;98527.00;;;;4925211;29;20470;-67
2023/09/11 02:50:55;;;;;;;12.55;7.07;;;;;18.00;98523.00;;;;4924912;29;20111;-66
2023/09/11 02:53:22;;;;;;;16.45;8.25;;;;;17.90;98526.00;;;;4909310;29;20052;-67
2023/09/11 02:55:48;;;;;;;16.08;7.90;;;;;17.90;98515.00;;;;4924411;29;20096;-67
2023/09/11 02:58:15;;;;;;;10.63;7.43;;;;;17.90;98518.00;;;;4905942;29;20063;-68
2023/09/11 03:00:42;;;;;;;15.95;8.25;;;;;17.80;98511.00;;;;4922205;29;20068;-68
2023/09/11 03:03:09;;;;;;;11.70;7.60;;;;;17.80;98514.00;;;;4906646;29;20052;-67
2023/09/11 03:05:36;;;;;;;14.43;8.00;;;;;17.80;98511.00;;;;4921339;29;20095;-67
2023/09/11 03:08:03;;;;;;;13.35;7.45;;;;;17.90;98508.00;;;;4919946;29;20048;-67
2023/09/11 03:10:31;;;;;;;16.20;7.32;;;;;17.80;98511.00;;;;4919657;29;20083;-69
2023/09/11 03:12:58;;;;;;;10.68;7.20;;;;;17.70;98501.00;;;;4919704;29;20147;-68
2023/09/11 03:15:27;;;;;;;15.63;7.57;;;;;17.70;98500.00;;;;4919941;29;20103;-67
2023/09/11 03:17:54;;;;;;;11.38;7.35;;;;;17.80;98497.00;;;;4920663;29;20054;-67
2023/09/11 03:20:21;;;;;;;17.05;8.30;;;;;17.80;98503.00;;;;4921091;29;20048;-67
2023/09/11 03:22:48;;;;;;;14.57;7.75;;;;;17.80;98506.00;;;;4907148;29;20103;-67
2023/09/11 03:25:15;;;;;;;15.48;7.45;;;;;17.90;98510.00;;;;4906159;29;20063;-67
2023/09/11 03:27:43;;;;;;;13.02;8.15;;;;;17.90;98505.00;;;;4907706;29;20421;-67
2023/09/11 03:30:10;;;;;;;17.92;8.30;;;;;17.90;98510.00;;;;4923368;29;20052;-67
2023/09/11 03:32:38;;;;;;;11.75;7.20;;;;;17.90;98500.00;;;;4923146;29;20072;-67
2023/09/11 03:35:06;;;;;;;13.38;7.35;;;;;17.90;98501.00;;;;4919419;29;20052;-67
2023/09/11 03:37:33;;;;;;;13.07;7.40;;;;;17.80;98498.00;;;;4920709;29;20044;-67
2023/09/11 03:40:00;;;;;;;10.82;7.47;;;;;17.70;98491.00;;;;4918922;29;20078;-68
2023/09/11 03:42:27;;;;;;;12.88;7.05;;;;;17.60;98487.00;;;;4920135;29;20052;-66
2023/09/11 03:44:54;;;;;;;15.30;7.80;;;;;17.60;98492.00;;;;4920055;29;20048;-65
2023/09/11 03:47:21;;;;;;;12.07;7.18;;;;;17.60;98494.00;;;;4921056;29;20063;-66
2023/09/11 03:49:48;;;;;;;11.38;7.82;;;;;17.70;98483.00;;;;4905923;29;20143;-65
2023/09/11 03:52:14;;;;;;;14.82;7.43;;;;;17.80;98485.00;;;;4922502;29;20151;-66
2023/09/11 03:54:41;;;;;;;14.88;7.70;;;;;17.90;98483.00;;;;4921794;29;20051;-66
2023/09/11 03:57:08;;;;;;;16.15;8.02;;;;;17.90;98487.00;;;;4923050;29;20398;-66
2023/09/11 03:59:35;;;;;;;13.00;8.18;;;;;17.90;98477.00;;;;4922057;29;20501;-66
2023/09/11 04:02:01;;;;;;;12.02;7.20;;;;;17.70;98481.00;;;;4920987;29;20080;-66
2023/09/11 04:04:28;;;;;;;16.75;8.02;;;;;17.60;98478.00;;;;4919537;29;20048;-67
2023/09/11 04:06:55;;;;;;;17.33;8.50;;;;;17.60;98474.00;;;;4921067;29;20071;-67
2023/09/11 04:09:21;;;;;;;16.45;7.82;;;;;17.60;98476.00;;;;4904227;29;20573;-67
2023/09/11 04:11:48;;;;;;;12.15;7.60;;;;;17.60;98480.00;;;;4905658;29;20052;-67
2023/09/11 04:14:15;;;;;;;14.38;8.60;;;;;17.70;98478.00;;;;4919065;29;20052;-66
2023/09/11 04:16:42;;;;;;;13.88;7.60;;;;;17.70;98475.00;;;;4919722;29;20143;-66
2023/09/11 04:19:08;;;;;;;15.27;8.45;;;;;17.60;98472.00;;;;4918292;29;20147;-68
2023/09/11 04:21:35;;;;;;;12.40;7.50;;;;;17.40;98472.00;;;;4915416;29;20059;-67
2023/09/11 04:24:02;;;;;;;16.50;8.82;;;;;17.30;98469.00;;;;4914727;29;20055;-68
2023/09/11 04:26:29;;;;;;;12.60;7.20;;;;;17.20;98468.00;;;;4915107;29;20103;-67
2023/09/11 04:28:56;;;;;;;14.95;7.78;;;;;17.20;98461.00;;;;4915569;29;20051;-67
2023/09/11 04:31:23;;;;;;;15.98;7.13;;;;;17.20;98468.00;;;;4916213;29;20074;-67
2023/09/11 04:33:50;;;;;;;13.38;7.63;;;;;17.10;98469.00;;;;4915164;29;20075;-68
2023/09/11 04:36:17;;;;;;;15.18;7.80;;;;;17.10;98468.00;;;;4916171;29;20047;-68
2023/09/11 04:38:44;;;;;;;15.57;7.45;;;;;17.00;98467.00;;;;4916861;29;20048;-68
2023/09/11 04:41:11;;;;;;;13.65;8.18;;;;;17.10;98467.00;;;;4915662;29;20054;-68
2023/09/11 04:43:37;;;;;;;17.13;8.18;;;;;17.10;98470.00;;;;4916592;29;20048;-67
2023/09/11 04:46:04;;;;;;;11.85;7.72;;;;;17.00;98459.00;;;;4916892;29;20087;-67
2023/09/11 04:48:31;;;;;;;15.32;7.95;;;;;17.10;98467.00;;;;4916143;29;20512;-67
2023/09/11 04:50:58;;;;;;;15.95;8.48;;;;;17.10;98464.00;;;;4900449;29;20509;-68
2023/09/11 04:53:25;;;;;;;14.45;8.20;;;;;17.10;98464.00;;;;4917126;29;20559;-67
2023/09/11 04:55:51;;;;;;;11.73;7.65;;;;;17.10;98471.00;;;;4915071;29;20152;-68
2023/09/11 04:58:18;;;;;;;13.98;7.88;;;;;17.10;98467.00;;;;4900067;29;20111;-68
2023/09/11 05:00:45;;;;;;;18.88;7.35;;;;;17.10;98463.00;;;;4914746;29;20059;-67
2023/09/11 05:03:12;;;;;;;16.08;7.30;;;;;17.10;98458.00;;;;4914766;29;20099;-68
2023/09/11 05:05:40;;;;;;;16.73;7.63;;;;;17.10;98464.00;;;;4914377;29;20076;-67
2023/09/11 05:08:09;;;;;;;19.90;8.00;;;;;17.20;98468.00;;;;4914931;29;20048;-68
2023/09/11 05:10:45;;;;;;;12.60;7.85;;;;;17.40;98466.00;;;;4899594;29;20048;-67
2023/09/11 05:13:14;;;;;;;14.15;7.28;;;;;17.40;98472.00;;;;4899656;29;20056;-67
2023/09/11 05:15:41;;;;;;;13.98;7.85;;;;;17.30;98467.00;;;;4898799;29;20044;-68
2023/09/11 05:18:08;;;;;;;17.00;7.40;;;;;17.20;98463.00;;;;4930528;29;20106;-67
2023/09/11 05:20:34;;;;;;;17.08;8.07;;;;;17.30;98468.00;;;;4915549;29;20055;-67
2023/09/11 05:23:01;;;;;;;15.23;7.75;;;;;17.40;98473.00;;;;4915993;29;20534;-68
2023/09/11 05:25:28;;;;;;;16.50;8.15;;;;;17.50;98472.00;;;;4915312;29;20048;-67
2023/09/11 05:27:54;;;;;;;17.15;6.65;;;;;17.60;98467.00;;;;4899101;29;20048;-67
2023/09/11 05:30:21;;;;;;;11.60;7.50;;;;;17.60;98480.00;;;;4916949;29;20040;-68
2023/09/11 05:32:51;;;;;;;15.52;7.50;;;;;17.70;98475.00;;;;4914494;29;20060;-68
2023/09/11 05:35:19;;;;;;;12.38;7.75;;;;;17.80;98479.00;;;;4899458;29;20056;-67
2023/09/11 05:37:46;;;;;;;18.42;7.90;;;;;17.70;98476.00;;;;4899030;29;20482;-67
2023/09/11 05:40:13;;;;;;;15.38;7.68;;;;;17.70;98482.00;;;;4916315;29;20048;-68
2023/09/11 05:42:39;;;;;;;17.63;7.68;;;;;17.70;98484.00;;;;4916607;29;20048;-67
2023/09/11 05:45:06;;;;;;;13.70;7.93;;;;;17.60;98477.00;;;;4914818;29;20116;-67
2023/09/11 05:47:34;;;;;;;12.30;7.75;;;;;17.60;98479.00;;;;4917794;29;20045;-68
2023/09/11 05:50:01;;;;;;;15.95;7.38;;;;;17.70;98481.00;;;;4916229;29;20052;-67
2023/09/11 05:52:28;;;;;;;14.05;7.80;;;;;17.80;98482.00;;;;4917741;29;20048;-67
2023/09/11 05:54:55;;;;;;;16.98;7.85;;;;;18.00;98482.00;;;;4919132;29;20201;-67
2023/09/11 05:57:21;;;;;;;14.65;7.65;;;;;18.10;98490.00;;;;4921417;29;20561;-68
2023/09/11 05:59:48;;;;;;;13.32;7.75;;;;;18.20;98486.00;;;;4926751;29;20076;-72
2023/09/11 06:02:15;;;;;;;12.70;7.50;;;;;18.40;98493.00;;;;4928391;29;20263;-72
2023/09/11 06:04:41;;;;;;;14.27;7.65;;;;;18.40;98485.00;;;;4929558;29;20044;-71
2023/09/11 06:07:09;;;;;;;15.18;7.70;;;;;18.40;98489.00;;;;4932743;29;20052;-72
2023/09/11 06:09:35;;;;;;;15.68;7.90;;;;;18.60;98490.00;;;;4922669;29;20051;-72
2023/09/11 06:12:02;;;;;;;16.23;7.60;;;;;18.70;98488.00;;;;4936705;29;20112;-72
2023/09/11 06:14:29;;;;;;;15.50;7.82;;;;;18.60;98483.00;;;;4936768;29;20044;-72
2023/09/11 06:16:56;;;;;;;11.52;7.57;;;;;18.70;98486.00;;;;4936107;29;20055;-72
2023/09/11 06:19:22;;;;;;;14.95;7.78;;;;;18.80;98490.00;;;;4938133;29;20083;-72
2023/09/11 06:21:49;;;;;;;11.00;7.40;;;;;18.90;98491.00;;;;4936888;29;20099;-72
2023/09/11 06:24:15;;;;;;;17.45;7.78;;;;;18.90;98487.00;;;;4937961;29;20067;-72
2023/09/11 06:26:43;;;;;;;14.55;7.72;;;;;19.00;98491.00;;;;4938458;29;20044;-71
2023/09/11 06:29:10;;;;;;;17.13;8.43;;;;;18.90;98491.00;;;;4937078;29;20052;-71
2023/09/11 06:31:36;;;;;;;10.68;7.50;;;;;18.80;98486.00;;;;4938399;29;20072;-71
2023/09/11 06:34:03;;;;;;;16.00;8.02;;;;;18.90;98488.00;;;;4938326;29;20103;-71
2023/09/11 06:36:30;;;;;;;17.35;8.95;;;;;18.90;98491.00;;;;4920950;29;20044;-71
2023/09/11 06:38:56;;;;;;;17.63;7.55;;;;;19.00;98495.00;;;;4939545;29;20516;-71
2023/09/11 06:41:23;;;;;;;13.45;8.10;;;;;19.00;98489.00;;;;4937299;29;20051;-71
2023/09/11 06:43:50;;;;;;;12.27;8.18;;;;;19.20;98496.00;;;;4921777;29;20076;-71
2023/09/11 06:46:17;;;;;;;11.95;7.55;;;;;19.30;98492.00;;;;4938067;29;20052;-70
2023/09/11 06:48:43;;;;;;;11.45;7.47;;;;;19.40;98496.00;;;;4922078;29;20044;-70
2023/09/11 06:51:10;;;;;;;18.38;8.57;;;;;19.40;98493.00;;;;4937729;29;20051;-70
2023/09/11 06:53:37;;;;;;;19.80;7.28;;;;;19.50;98488.00;;;;4937453;29;20034;-68
2023/09/11 06:56:07;;;;;;;13.38;7.93;;;;;19.60;98483.00;;;;4936490;29;20616;-69
2023/09/11 06:58:34;;;;;;;16.92;8.52;;;;;19.60;98476.00;;;;4934982;29;20052;-69
2023/09/11 07:01:02;;;;;;;12.90;7.75;;;;;19.70;98480.00;;;;4933867;29;20048;-69
2023/09/11 07:03:29;;;;;;;16.40;7.63;;;;;19.80;98483.00;;;;4934008;29;20067;-69
2023/09/11 07:05:55;;;;;;;14.98;7.88;;;;;19.90;98483.00;;;;4935885;29;20485;-69
2023/09/11 07:08:22;;;;;;;23.30;9.68;;;;;20.00;98482.00;;;;4935660;29;20048;-70
2023/09/11 07:10:50;;;;;;;14.25;8.38;;;;;20.10;98484.00;;;;4932959;29;20059;-70
2023/09/11 07:13:16;;;;;;;19.23;11.27;;;;;20.30;98486.00;;;;4932571;29;20067;-70
2023/09/11 07:15:43;;;;;;;19.63;11.18;;;;;20.50;98482.00;;;;4934402;29;20437;-70
2023/09/11 07:18:10;;;;;;;20.20;8.23;;;;;20.50;98481.00;;;;4933929;29;20048;-71
2023/09/11 07:20:36;;;;;;;17.23;10.32;;;;;20.60;98491.00;;;;4933431;29;20044;-70
2023/09/11 07:23:03;;;;;;;19.00;10.15;;;;;20.60;98501.00;;;;4933233;29;20056;-69
2023/09/11 07:25:30;;;;;;;14.75;8.25;;;;;20.60;98491.00;;;;4936037;29;20072;-71
2023/09/11 07:27:56;;;;;;;18.92;9.60;;;;;20.80;98493.00;;;;4936875;29;20072;-71
2023/09/11 07:30:23;;;;;;;11.93;7.57;;;;;20.90;98487.00;;;;4938758;29;20032;-69
2023/09/11 07:32:52;;;;;;;14.00;7.28;;;;;21.20;98492.00;;;;4935679;29;20486;-69
2023/09/11 07:35:20;;;;;;;15.80;7.80;;;;;21.40;98499.00;;;;4935291;29;20052;-73
2023/09/11 07:37:48;;;;;;;17.25;7.43;;;;;21.50;98502.00;;;;4938891;29;20048;-71
2023/09/11 07:40:15;;;;;;;16.42;7.85;;;;;21.60;98494.00;;;;4941991;29;20047;-69
2023/09/11 07:42:41;;;;;;;16.33;7.63;;;;;21.70;98503.00;;;;4941874;29;20036;-70
2023/09/11 07:45:09;;;;;;;15.57;6.78;;;;;21.90;98510.00;;;;4942321;29;20080;-69
2023/09/11 07:47:35;;;;;;;15.52;6.93;;;;;22.00;98504.00;;;;4942353;29;20025;-68
2023/09/11 07:50:02;;;;;;;20.05;10.07;;;;;22.10;98496.00;;;;4941358;29;20055;-68
2023/09/11 07:52:29;;;;;;;18.08;8.05;;;;;22.30;98507.00;;;;4925118;29;20072;-66
2023/09/11 07:54:55;;;;;;;15.27;7.43;;;;;22.40;98506.00;;;;4922938;29;20490;-66
2023/09/11 07:57:22;;;;;;;17.95;8.55;;;;;22.60;98501.00;;;;4902741;29;20052;-66
2023/09/11 07:59:49;;;;;;;14.07;6.90;;;;;22.70;98508.00;;;;4916895;29;20471;-67
2023/09/11 08:02:16;;;;;;;14.52;8.10;;;;;22.80;98495.00;;;;4918005;29;20052;-67
2023/09/11 08:04:43;;;;;;;22.63;8.98;;;;;22.70;98493.00;;;;4917765;29;20052;-67
2023/09/11 08:07:09;;;;;;;11.30;6.47;;;;;22.80;98503.00;;;;4924645;29;20052;-69
2023/09/11 08:09:36;;;;;;;13.45;7.53;;;;;22.90;98501.00;;;;4924819;29;20163;-67
2023/09/11 08:12:03;;;;;;;14.63;7.13;;;;;23.00;98501.00;;;;4918182;29;20079;-68
2023/09/11 08:14:30;;;;;;;18.05;6.45;;;;;23.00;98497.00;;;;4915391;29;20465;-67
2023/09/11 08:16:56;;;;;;;16.08;6.72;;;;;23.10;98500.00;;;;4916165;29;20063;-67
2023/09/11 08:19:23;;;;;;;16.02;7.30;;;;;23.20;98498.00;;;;4915503;29;20050;-68
2023/09/11 08:21:50;;;;;;;11.48;6.63;;;;;23.30;98506.00;;;;4917088;29;20423;-67
2023/09/11 08:24:17;;;;;;;18.35;6.80;;;;;23.40;98504.00;;;;4914992;29;20547;-67
2023/09/11 08:26:44;;;;;;;10.60;6.30;;;;;23.50;98508.00;;;;4915498;29;20508;-67
2023/09/11 08:29:12;;;;;;;19.45;7.03;;;;;23.70;98511.00;;;;4916586;29;20044;-67
2023/09/11 08:31:38;;;;;;;13.50;6.88;;;;;23.80;98506.00;;;;4915195;29;20043;-67
2023/09/11 08:34:05;;;;;;;11.65;6.60;;;;;23.90;98500.00;;;;4916058;29;20051;-67
2023/09/11 08:36:32;;;;;;;17.55;7.72;;;;;24.10;98506.00;;;;4915411;29;20139;-68
2023/09/11 08:38:58;;;;;;;17.02;7.70;;;;;24.30;98494.00;;;;4916375;29;20055;-68
2023/09/11 08:41:26;;;;;;;19.23;8.18;;;;;24.40;98498.00;;;;4916331;29;20127;-67
2023/09/11 08:43:52;;;;;;;13.88;7.03;;;;;24.40;98491.00;;;;4914672;29;20054;-68
2023/09/11 08:46:21;;;;;;;17.20;7.13;;;;;24.50;98480.00;;;;4916048;29;20497;-68
2023/09/11 08:48:53;;;;;;;13.65;6.50;;;;;24.60;98496.00;;;;4916481;29;20048;-68
2023/09/11 08:51:49;;;;;;;13.68;5.78;;;;;24.80;98491.00;;;;4916505;29;20044;-68
2023/09/11 08:54:16;;;;;;;13.48;7.00;;;;;25.00;98497.00;;;;4914535;29;20128;-68
2023/09/11 08:56:43;;;;;;;16.90;5.63;;;;;25.10;98493.00;;;;4899319;29;20048;-67
2023/09/11 08:59:12;;;;;;;16.05;6.93;;;;;25.20;98490.00;;;;4916274;29;20044;-68
2023/09/11 09:01:40;;;;;;;16.45;7.75;;;;;25.40;98485.00;;;;4915310;29;20142;-68
2023/09/11 09:04:07;;;;;;;13.77;6.25;;;;;25.50;98487.00;;;;4906320;29;20044;-65
2023/09/11 09:06:36;;;;;;;16.73;7.80;;;;;25.60;98486.00;;;;4918964;29;20048;-65
2023/09/11 09:09:03;;;;;;;12.07;6.28;;;;;25.70;98488.00;;;;4920520;29;20566;-65
2023/09/11 09:11:30;;;;;;;14.88;6.25;;;;;25.80;98484.00;;;;4915730;29;20096;-65
2023/09/11 09:13:58;;;;;;;13.13;6.25;;;;;26.00;98489.00;;;;4915793;29;20498;-66
2023/09/11 09:16:24;;;;;;;9.98;5.22;;;;;26.10;98491.00;;;;4916668;29;20052;-66
2023/09/11 09:18:51;;;;;;;12.82;5.40;;;;;26.30;98496.00;;;;4916089;29;20480;-66
2023/09/11 09:21:25;;;;;;;13.43;5.65;;;;;26.40;98492.00;;;;4915933;29;20052;-67
2023/09/11 09:23:52;;;;;;;15.00;5.30;;;;;26.50;98485.00;;;;4915884;29;20588;-67
2023/09/11 09:26:21;;;;;;;9.35;4.63;;;;;26.70;98491.00;;;;4914888;29;20048;-67
2023/09/11 09:28:51;;;;;;;12.48;5.88;;;;;26.80;98489.00;;;;4914447;29;20506;-67
2023/09/11 09:31:23;;;;;;;12.32;5.40;;;;;26.90;98485.00;;;;4918332;29;20048;-67
2023/09/11 09:33:53;;;;;;;15.60;5.25;;;;;27.00;98477.00;;;;4918236;29;20083;-67
2023/09/11 09:36:21;;;;;;;8.68;4.70;;;;;27.20;98476.00;;;;4903284;29;20390;-66
2023/09/11 09:38:48;;;;;;;14.00;4.82;;;;;27.30;98470.00;;;;4922068;29;20081;-66
2023/09/11 09:41:16;;;;;;;9.65;5.47;;;;;27.40;98477.00;;;;4904263;29;20465;-67
2023/09/11 09:43:53;;;;;;;10.57;4.93;;;;;27.50;98471.00;;;;4918428;29;20075;-66
2023/09/11 09:46:21;;;;;;;11.25;6.68;;;;;27.70;98471.00;;;;4918911;29;20070;-66
2023/09/11 09:48:48;;;;;;;10.95;6.20;;;;;27.70;98473.00;;;;4919259;29;20055;-66
2023/09/11 09:51:15;;;;;;;10.77;5.63;;;;;27.90;98471.00;;;;4920763;29;20543;-66
2023/09/11 09:53:46;;;;;;;9.68;4.65;;;;;28.00;98470.00;;;;4919689;29;20056;-65
2023/09/11 09:56:14;;;;;;;8.48;4.82;;;;;28.10;98472.00;;;;4919615;29;20048;-65
2023/09/11 09:58:43;;;;;;;9.63;4.35;;;;;28.10;98475.00;;;;4919609;29;20111;-65
2023/09/11 10:01:16;;;;;;;10.05;5.78;;;;;28.20;98466.00;;;;4918659;29;20044;-66
2023/09/11 10:03:48;;;;;;;9.73;4.90;;;;;28.20;98462.00;;;;4917797;29;20052;-66
2023/09/11 10:06:27;;;;;;;13.52;4.97;;;;;28.30;98456.00;;;;4918335;29;20149;-67
2023/09/11 10:09:05;;;;;;;9.75;5.10;;;;;28.40;98464.00;;;;4918477;29;20040;-66
2023/09/11 10:11:32;;;;;;;15.40;4.82;;;;;28.40;98456.00;;;;4918002;29;20060;-67
2023/09/11 10:14:02;;;;;;;13.27;4.93;;;;;28.50;98451.00;;;;4917365;29;20048;-67
2023/09/11 10:16:33;;;;;;;9.30;4.55;;;;;28.50;98445.00;;;;4917363;29;20048;-66
2023/09/11 10:19:02;;;;;;;10.93;4.70;;;;;28.70;98447.00;;;;4902071;29;20050;-65
2023/09/11 10:21:29;;;;;;;9.02;4.38;;;;;28.80;98450.00;;;;4917387;29;20052;-66
2023/09/11 10:23:56;;;;;;;9.73;5.18;;;;;28.90;98443.00;;;;4917865;29;20468;-66
2023/09/11 10:26:29;;;;;;;10.18;5.07;;;;;28.90;98444.00;;;;4917424;29;20056;-66
2023/09/11 10:29:01;;;;;;;15.57;7.72;;;;;28.90;98441.00;;;;4917345;29;20469;-66
2023/09/11 10:31:51;;;;;;;11.35;4.80;;;;;29.00;98439.00;;;;4919125;29;20087;-66
2023/09/11 10:34:19;;;;;;;9.85;5.05;;;;;29.10;98437.00;;;;4918328;29;20040;-66
2023/09/11 10:36:53;;;;;;;11.10;4.97;;;;;29.30;98433.00;;;;4918774;29;20390;-66
2023/09/11 10:39:20;;;;;;;9.13;5.40;;;;;29.40;98420.00;;;;4917736;29;20066;-68
2023/09/11 10:41:47;;;;;;;11.65;5.00;;;;;29.40;98429.00;;;;4918575;29;20462;-67
2023/09/11 10:44:15;;;;;;;5.45;4.53;;;;;29.50;98437.00;;;;4917042;29;20056;-67
2023/09/11 10:46:51;;;;;;;11.07;4.70;;;;;29.70;98429.00;;;;4901378;29;20056;-67
2023/09/11 10:49:19;;;;;;;7.75;4.40;;;;;29.80;98431.00;;;;4918367;29;20051;-67
2023/09/11 10:51:47;;;;;;;10.65;4.85;;;;;29.80;98427.00;;;;4917327;29;20044;-67
2023/09/11 10:54:16;;;;;;;7.20;4.45;;;;;29.80;98430.00;;;;4917017;29;20553;-68
2023/09/11 10:56:43;;;;;;;9.90;5.57;;;;;29.90;98426.00;;;;4917356;29;20062;-67
2023/09/11 10:59:11;;;;;;;9.45;4.95;;;;;30.00;98425.00;;;;4918594;29;20452;-67
2023/09/11 11:01:37;;;;;;;11.00;5.53;;;;;30.10;98421.00;;;;4917753;29;20505;-67
2023/09/11 11:04:04;;;;;;;9.00;5.72;;;;;30.30;98430.00;;;;4917137;29;20059;-67
2023/09/11 11:06:33;;;;;;;8.00;4.88;;;;;30.40;98431.00;;;;4917957;29;20513;-67
2023/09/11 11:09:00;;;;;;;9.75;5.00;;;;;30.40;98428.00;;;;4917691;29;20435;-67
2023/09/11 11:11:29;;;;;;;8.13;4.53;;;;;30.40;98425.00;;;;4917724;29;20119;-67
2023/09/11 11:14:22;;;;;;;8.23;4.40;;;;;30.50;98426.00;;;;4917066;29;20048;-67
2023/09/11 11:17:16;;;;;;;7.80;4.97;;;;;30.50;98426.00;;;;4916162;29;20056;-67
2023/09/11 11:19:51;;;;;;;14.10;6.15;;;;;30.60;98419.00;;;;4916040;29;20079;-67
2023/09/11 11:22:32;;;;;;;12.43;5.00;;;;;30.70;98423.00;;;;4916466;29;20056;-67
2023/09/11 11:25:05;;;;;;;10.75;5.30;;;;;30.60;98414.00;;;;4917174;29;20047;-67
2023/09/11 11:27:32;;;;;;;;;;;;;30.70;98418.00;;;;4916456;29;20094;-68
2023/09/11 11:29:59;;;;;;;5.93;4.47;;;;;30.70;98413.00;;;;4916127;29;20021;-67
2023/09/11 11:32:30;;;;;;;6.28;4.95;;;;;30.80;98414.00;;;;4917272;29;20044;-67
2023/09/11 11:35:01;;;;;;;9.32;4.57;;;;;30.90;98407.00;;;;4899734;29;20058;-66
2023/09/11 11:37:30;;;;;;;6.75;4.60;;;;;31.00;98402.00;;;;4915842;29;20253;-67
2023/09/11 11:39:59;;;;;;;7.97;4.93;;;;;31.00;98400.00;;;;4917408;29;20454;-67
2023/09/11 11:42:26;;;;;;;10.13;4.72;;;;;31.10;98400.00;;;;4915854;29;20064;-67
2023/09/11 11:44:53;;;;;;;6.93;4.47;;;;;31.10;98401.00;;;;4915446;29;20052;-66
2023/09/11 11:47:21;;;;;;;11.73;5.40;;;;;31.10;98390.00;;;;4915433;29;20075;-66
2023/09/11 11:49:49;;;;;;;7.55;4.65;;;;;31.20;98387.00;;;;4915739;29;20444;-67
2023/09/11 11:52:16;;;;;;;7.63;4.25;;;;;31.20;98387.00;;;;4914872;29;20058;-67
2023/09/11 11:54:42;;;;;;;8.98;4.75;;;;;31.40;98387.00;;;;4916225;29;20115;-67
2023/09/11 11:57:09;;;;;;;8.23;4.85;;;;;31.60;98384.00;;;;4915507;29;20115;-66
2023/09/11 11:59:40;;;;;;;7.30;4.28;;;;;31.70;98388.00;;;;4915653;29;20073;-66
2023/09/11 12:02:20;;;;;;;5.85;4.60;;;;;31.70;98390.00;;;;4915404;29;20168;-67
2023/09/11 12:04:50;;;;;;;8.65;5.25;;;;;31.60;98386.00;;;;4914779;29;20048;-67
2023/09/11 12:07:17;;;;;;;9.10;5.05;;;;;31.80;98389.00;;;;4916693;29;20043;-67
2023/09/11 12:09:44;;;;;;;8.82;4.32;;;;;31.90;98381.00;;;;4915193;29;20072;-67
2023/09/11 12:12:10;;;;;;;12.07;4.70;;;;;32.00;98388.00;;;;4916534;29;20055;-67
2023/09/11 12:14:37;;;;;;;9.80;4.30;;;;;32.10;98385.00;;;;4916025;29;20058;-67